Pagina principale
METAR-TAF:

METAR-TAF

Aeroporti :

Andora, Italia

Capo Mele

latitudine: 43-57N, longitudine: 008-10E, altezza: 220 m

Osservazione

Il bollettino è stato emesso 45 minuti fa, alle 05:55 UTC
Vento 9 kt da nord
Temperature 9°C
Umidità 93%
Pressione 997 hPa
Visibilità 10 km o più
nessuna nube inferiore a 1500 m e nessun cumulonembo

METAR: LIMU 170555Z 36009KT CAVOK 09/08 Q0997 RMK SKC QUK / QUL / VIS MAR 30 KM VIS MIN 9999

Ora: 07:40 (06:40 UTC)


TAF: mancante

Osservazioni e previsioni meteorologiche di più di 4000 aeroporti (messaggi METAR e TAF).

Le stazioni disponibili sono rappresentate dai dischi gialli e rossi sulla carta.

Puntare il mouse per vedere il nome della stazione.

Clicca sopra per visualizzare le osservazioni e previsioni meteorologiche.

Per cambiare la mappa : fare clic sui pulsanti verdi con una croce nera per ingrandire, il pulsante verde con un trattino per diminuire, o sulla freccia verde per le mappe adiacenti.


METAR-TAF: